Time;durP1;ratioP1;P1;durP2;ratioP2;P2;SDS_P1;SDS_P2;PMS_P1;PMS_P2;Temp;Humidity;BMP_temperature;BMP_pressure;BME280_temperature;BME280_humidity;BME280_pressure;Samples;Min_cycle;Max_cycle;Signal;HPM_P1;HPM_P2
2022/04/10 00:00:52;;;;;;;18.50;7.65;;;;;;;7.49;100.00;89799.53;5052965;28;20028;-65
2022/04/10 00:03:19;;;;;;;17.23;7.07;;;;;;;7.51;100.00;89786.75;5052850;28;20032;-65
2022/04/10 00:05:44;;;;;;;16.95;7.85;;;;;;;7.66;100.00;89795.25;5052804;28;20055;-65
2022/04/10 00:08:10;;;;;;;13.68;7.22;;;;;;;7.52;100.00;89782.22;5052697;28;20033;-65
2022/04/10 00:10:35;;;;;;;17.83;6.25;;;;;;;7.51;100.00;89792.03;5052738;28;20024;-65
2022/04/10 00:13:01;;;;;;;15.60;7.07;;;;;;;7.60;100.00;89797.31;5034787;28;20490;-65
2022/04/10 00:15:27;;;;;;;10.07;5.63;;;;;;;7.67;100.00;89786.22;5052862;28;20025;-65
2022/04/10 00:17:53;;;;;;;8.95;5.07;;;;;;;7.73;100.00;89787.59;5052530;28;20479;-65
2022/04/10 00:20:19;;;;;;;8.77;4.20;;;;;;;7.70;100.00;89793.50;5052582;28;20028;-65
2022/04/10 00:22:46;;;;;;;6.65;3.45;;;;;;;7.67;100.00;89789.63;5052601;28;20148;-65
2022/04/10 00:25:14;;;;;;;5.45;3.15;;;;;;;7.65;100.00;89778.59;5052420;28;20031;-65
2022/04/10 00:27:40;;;;;;;6.88;3.40;;;;;;;7.61;100.00;89769.75;5052482;28;20029;-65
2022/04/10 00:30:10;;;;;;;9.10;3.80;;;;;;;7.57;100.00;89768.03;5052554;28;20021;-65
2022/04/10 00:32:36;;;;;;;8.18;3.78;;;;;;;7.55;100.00;89778.16;5052327;28;20483;-65
2022/04/10 00:35:02;;;;;;;8.60;4.47;;;;;;;7.42;100.00;89772.78;5052159;28;20031;-65
2022/04/10 00:37:28;;;;;;;6.80;4.10;;;;;;;7.36;100.00;89760.03;5052548;28;20032;-66
2022/04/10 00:39:54;;;;;;;6.90;4.50;;;;;;;7.36;100.00;89760.81;5034418;28;20033;-65
2022/04/10 00:42:20;;;;;;;9.80;4.47;;;;;;;7.29;100.00;89768.47;5052173;28;20041;-65
2022/04/10 00:44:45;;;;;;;8.70;4.20;;;;;;;7.20;100.00;89763.19;5052057;28;20405;-65
2022/04/10 00:47:11;;;;;;;10.48;5.10;;;;;;;7.15;100.00;89773.19;5051791;28;20029;-65
2022/04/10 00:49:37;;;;;;;8.65;4.50;;;;;;;7.04;100.00;89759.50;5052321;28;20032;-65
2022/04/10 00:52:08;;;;;;;6.30;4.07;;;;;;;7.03;100.00;89776.47;5052041;28;20095;-65
2022/04/10 00:54:34;;;;;;;6.80;3.97;;;;;;;6.97;100.00;89767.16;5051903;28;20036;-65
2022/04/10 00:57:01;;;;;;;22.05;7.05;;;;;;;7.01;100.00;89751.44;5051923;28;20025;-65
2022/04/10 00:59:28;;;;;;;10.25;3.92;;;;;;;6.95;100.00;89756.13;5051900;28;20025;-64
2022/04/10 01:01:55;;;;;;;9.55;4.53;;;;;;;7.03;100.00;89759.84;5051822;28;20529;-65
2022/04/10 01:04:21;;;;;;;8.07;4.10;;;;;;;7.00;100.00;89749.91;5051730;28;20391;-65
2022/04/10 01:06:54;;;;;;;9.30;4.60;;;;;;;7.06;100.00;89765.25;5051628;28;20032;-65
2022/04/10 01:09:20;;;;;;;6.35;3.95;;;;;;;7.09;100.00;89750.63;5051705;28;20039;-64
2022/04/10 01:11:46;;;;;;;6.70;4.43;;;;;;;7.12;100.00;89747.38;5051728;28;20029;-65
2022/04/10 01:14:13;;;;;;;11.85;4.28;;;;;;;7.03;100.00;89744.75;5051644;28;20142;-65
2022/04/10 01:16:38;;;;;;;6.63;3.92;;;;;;;7.02;100.00;89737.91;5033271;28;20430;-65
2022/04/10 01:19:05;;;;;;;9.52;3.90;;;;;;;7.08;100.00;89738.50;5051446;28;20032;-65
2022/04/10 01:21:39;;;;;;;7.13;3.60;;;;;;;7.11;100.00;89735.25;5051475;28;20029;-65
2022/04/10 01:24:05;;;;;;;12.60;3.65;;;;;;;7.13;100.00;89743.63;5051453;28;20036;-65
2022/04/10 01:26:31;;;;;;;13.15;3.60;;;;;;;7.24;100.00;89731.59;5051277;28;20108;-65
2022/04/10 01:29:04;;;;;;;8.57;3.40;;;;;;;7.35;100.00;89735.44;5051625;28;20032;-65
2022/04/10 01:31:31;;;;;;;10.18;4.47;;;;;;;7.44;100.00;89733.56;5051404;28;20024;-65
2022/04/10 01:34:01;;;;;;;7.03;3.20;;;;;;;7.48;100.00;89718.59;5051007;28;20033;-65
2022/04/10 01:36:29;;;;;;;9.57;3.47;;;;;;;7.41;100.00;89723.59;5051165;28;20031;-65
2022/04/10 01:38:56;;;;;;;8.38;3.40;;;;;;;7.39;100.00;89717.84;5051008;28;20481;-65
2022/04/10 01:41:26;;;;;;;9.40;4.20;;;;;;;7.33;100.00;89705.91;5051242;28;20025;-65
2022/04/10 01:43:53;;;;;;;8.93;4.22;;;;;;;7.24;100.00;89707.03;5051460;28;20025;-65
2022/04/10 01:46:19;;;;;;;7.25;4.25;;;;;;;7.21;100.00;89698.63;5033141;28;20025;-65
2022/04/10 01:48:45;;;;;;;9.07;3.83;;;;;;;7.17;100.00;89691.66;5050992;28;20053;-65
2022/04/10 01:51:11;;;;;;;7.43;3.90;;;;;;;7.21;100.00;89705.78;5050058;28;20560;-65
2022/04/10 01:53:37;;;;;;;10.05;4.40;;;;;;;7.26;100.00;89700.34;5051121;28;20112;-65
2022/04/10 01:56:04;;;;;;;6.80;3.90;;;;;;;7.17;100.00;89692.44;5033121;28;20473;-65
2022/04/10 01:58:30;;;;;;;7.53;3.55;;;;;;;7.28;100.00;89714.03;5050984;28;20502;-65
2022/04/10 02:00:56;;;;;;;8.38;3.95;;;;;;;7.31;100.00;89736.41;5051008;28;20135;-65
2022/04/10 02:03:21;;;;;;;7.18;4.50;;;;;;;7.17;100.00;89747.19;5051016;28;20116;-65
2022/04/10 02:05:47;;;;;;;5.63;3.97;;;;;;;7.03;100.00;89738.69;5050925;28;20033;-65
2022/04/10 02:08:13;;;;;;;8.55;4.38;;;;;;;6.98;100.00;89741.50;5050832;28;20033;-65
2022/04/10 02:10:39;;;;;;;8.77;4.20;;;;;;;6.88;100.00;89742.59;5051025;28;20021;-65
2022/04/10 02:13:06;;;;;;;10.02;4.50;;;;;;;6.96;100.00;89748.97;5050974;28;20029;-65
2022/04/10 02:15:31;;;;;;;10.40;4.30;;;;;;;6.92;100.00;89746.16;5050810;28;20148;-65
2022/04/10 02:17:57;;;;;;;8.20;4.93;;;;;;;6.90;100.00;89735.91;5050903;28;20108;-65
2022/04/10 02:20:22;;;;;;;9.43;4.90;;;;;;;6.97;100.00;89739.97;5050805;28;20025;-65
2022/04/10 02:22:51;;;;;;;7.03;3.50;;;;;;;7.02;100.00;89729.19;5050858;28;20040;-65
2022/04/10 02:25:17;;;;;;;6.47;3.65;;;;;;;7.03;100.00;89728.09;5050752;28;20048;-65
2022/04/10 02:27:42;;;;;;;7.18;4.30;;;;;;;7.07;100.00;89718.44;5050738;28;20033;-65
2022/04/10 02:30:08;;;;;;;13.35;4.60;;;;;;;7.03;100.00;89730.75;5052914;28;20035;-64
2022/04/10 02:32:34;;;;;;;7.55;4.20;;;;;;;7.07;100.00;89731.66;5054848;28;20032;-65
2022/04/10 02:34:59;;;;;;;6.40;3.47;;;;;;;7.07;100.00;89731.66;5054580;28;20404;-65
2022/04/10 02:37:25;;;;;;;16.08;3.47;;;;;;;7.10;100.00;89726.53;5054582;28;20055;-64
2022/04/10 02:39:51;;;;;;;7.35;3.13;;;;;;;7.17;100.00;89729.47;5054503;28;20545;-65
2022/04/10 02:42:16;;;;;;;7.97;3.47;;;;;;;7.30;100.00;89724.28;5054454;28;20025;-65
2022/04/10 02:44:42;;;;;;;11.25;3.83;;;;;;;7.37;100.00;89735.13;5054293;28;20112;-65
2022/04/10 02:47:07;;;;;;;9.02;3.95;;;;;;;7.45;100.00;89732.47;5054421;28;20103;-65
2022/04/10 02:49:33;;;;;;;5.90;3.55;;;;;;;7.36;100.00;89718.50;5054130;28;20506;-65
2022/04/10 02:51:58;;;;;;;7.50;4.53;;;;;;;7.53;100.00;89722.91;5054261;28;20039;-65
2022/04/10 02:54:23;;;;;;;12.15;4.70;;;;;;;7.53;100.00;89730.09;5054211;28;20040;-65
2022/04/10 02:56:49;;;;;;;12.82;4.50;;;;;;;7.60;100.00;89725.09;5036300;28;20025;-65
2022/04/10 02:59:14;;;;;;;10.90;4.70;;;;;;;7.60;100.00;89720.56;5054170;28;20482;-65
2022/04/10 03:01:40;;;;;;;8.35;3.75;;;;;;;7.68;100.00;89721.59;5054111;28;20454;-65
2022/04/10 03:04:05;;;;;;;62.88;22.25;;;;;;;7.68;100.00;89718.94;5053962;28;20025;-65
2022/04/10 03:06:31;;;;;;;14.05;8.05;;;;;;;7.72;100.00;89725.16;5053869;28;20470;-65
2022/04/10 03:08:56;;;;;;;9.40;4.10;;;;;;;7.87;100.00;89729.13;5054009;28;20025;-65
2022/04/10 03:11:24;;;;;;;9.30;4.78;;;;;;;7.96;100.00;89717.38;5053910;28;20021;-65
2022/04/10 03:13:49;;;;;;;7.32;3.85;;;;;;;8.01;100.00;89717.19;5053957;28;20604;-65
2022/04/10 03:16:15;;;;;;;9.63;4.43;;;;;;;8.15;100.00;89716.16;5053704;28;20108;-65
2022/04/10 03:18:40;;;;;;;8.50;4.28;;;;;;;8.26;100.00;89718.09;5053815;28;20064;-65
2022/04/10 03:21:06;;;;;;;7.28;3.80;;;;;;;8.31;100.00;89723.19;5053780;28;20021;-65
2022/04/10 03:23:31;;;;;;;9.10;6.28;;;;;;;8.29;100.00;89719.34;5053661;28;20437;-66
2022/04/10 03:25:57;;;;;;;7.22;4.10;;;;;;;8.39;100.00;89718.97;5053851;28;20021;-65
2022/04/10 03:28:22;;;;;;;7.45;4.30;;;;;;;8.39;100.00;89714.44;5053767;28;20533;-65
2022/04/10 03:30:48;;;;;;;8.38;3.33;;;;;;;8.39;100.00;89714.44;5053783;28;20562;-65
2022/04/10 03:33:13;;;;;;;6.18;3.28;;;;;;;8.37;100.00;89723.81;5053556;28;20124;-65
2022/04/10 03:35:39;;;;;;;12.13;3.50;;;;;;;8.34;100.00;89721.81;5053421;28;20037;-65
2022/04/10 03:38:04;;;;;;;10.38;3.97;;;;;;;8.35;100.00;89728.66;5053350;28;20025;-65
2022/04/10 03:40:30;;;;;;;4.13;3.20;;;;;;;8.53;100.00;89711.53;5053027;28;20482;-65
2022/04/10 03:42:55;;;;;;;7.05;3.38;;;;;;;8.69;100.00;89724.97;5053315;28;20445;-65
2022/04/10 03:45:21;;;;;;;6.25;3.58;;;;;;;8.88;100.00;89727.88;5053216;28;20043;-65
2022/04/10 03:47:47;;;;;;;5.25;2.83;;;;;;;9.03;100.00;89741.63;5052885;28;20630;-65
2022/04/10 03:50:13;;;;;;;8.10;3.50;;;;;;;9.16;99.24;89741.34;5053126;28;20025;-65
2022/04/10 03:52:38;;;;;;;4.75;3.00;;;;;;;9.29;95.58;89736.81;5053182;28;20029;-65
2022/04/10 03:55:05;;;;;;;7.22;2.72;;;;;;;9.42;91.68;89733.06;5053079;28;20501;-65
2022/04/10 03:57:30;;;;;;;8.57;3.20;;;;;;;9.62;88.29;89734.06;5053056;28;20024;-65
2022/04/10 03:59:56;;;;;;;5.55;2.63;;;;;;;9.78;84.49;89719.06;5053036;28;20028;-65
2022/04/10 04:02:24;;;;;;;5.38;2.13;;;;;;;9.98;82.21;89716.59;5052922;28;20029;-65
2022/04/10 04:04:50;;;;;;;4.75;2.70;;;;;;;10.05;81.71;89730.88;5052857;28;20055;-66
2022/04/10 04:07:16;;;;;;;7.28;3.00;;;;;;;9.97;84.29;89728.34;5052859;28;20013;-66
2022/04/10 04:09:42;;;;;;;3.88;2.40;;;;;;;10.12;80.25;89739.06;5052830;28;20578;-65
2022/04/10 04:12:08;;;;;;;6.80;2.80;;;;;;;10.37;74.97;89726.53;5052710;28;20115;-66
2022/04/10 04:14:36;;;;;;;9.55;5.68;;;;;;;10.64;73.11;89722.34;5052663;28;20040;-65
2022/04/10 04:17:01;;;;;;;6.75;2.47;;;;;;;10.65;72.39;89701.84;5052680;28;20021;-65
2022/04/10 04:19:27;;;;;;;6.72;3.47;;;;;;;10.93;70.44;89713.25;5052656;28;20029;-65
2022/04/10 04:21:52;;;;;;;6.95;2.20;;;;;;;11.19;67.28;89722.66;5052249;28;20063;-65
2022/04/10 04:24:17;;;;;;;2.17;1.70;;;;;;;11.40;65.17;89731.97;5052423;28;20021;-65
2022/04/10 04:26:43;;;;;;;11.43;4.57;;;;;;;11.62;64.35;89719.19;5052472;28;20072;-65
2022/04/10 04:29:08;;;;;;;6.60;3.58;;;;;;;11.62;64.26;89724.50;5052511;28;20040;-65
2022/04/10 04:31:34;;;;;;;6.55;3.20;;;;;;;11.67;63.93;89717.03;5052458;28;20025;-66
2022/04/10 04:33:59;;;;;;;6.63;2.85;;;;;;;11.79;63.50;89726.09;5052428;28;20029;-66
2022/04/10 04:36:25;;;;;;;4.18;2.17;;;;;;;11.95;62.51;89732.19;5052198;28;20032;-65
2022/04/10 04:38:50;;;;;;;7.93;2.05;;;;;;;12.05;62.51;89729.00;5052257;28;20060;-65
2022/04/10 04:41:16;;;;;;;5.18;2.85;;;;;;;12.14;59.94;89729.56;5052246;28;20039;-65
2022/04/10 04:43:41;;;;;;;4.70;2.13;;;;;;;12.22;59.97;89731.28;5052226;28;20083;-65
2022/04/10 04:46:06;;;;;;;6.68;2.90;;;;;;;12.32;59.25;89734.56;5052054;28;20528;-66
2022/04/10 04:48:32;;;;;;;5.15;2.40;;;;;;;12.37;58.82;89731.59;5051860;28;20044;-66
2022/04/10 04:51:00;;;;;;;8.18;3.05;;;;;;;12.48;58.31;89738.72;5052059;28;20387;-65
2022/04/10 04:53:25;;;;;;;5.90;2.67;;;;;;;12.51;58.60;89739.91;5051349;28;20552;-67
2022/04/10 04:55:51;;;;;;;9.63;3.20;;;;;;;12.56;58.96;89742.31;5051860;28;20025;-66
2022/04/10 04:58:16;;;;;;;9.15;3.53;;;;;;;12.55;58.87;89738.09;5051612;28;20024;-66
2022/04/10 05:00:42;;;;;;;5.78;2.90;;;;;;;12.60;58.75;89733.25;5051831;28;20078;-66
2022/04/10 05:03:07;;;;;;;6.70;3.22;;;;;;;12.65;58.68;89726.09;5051793;28;20035;-67
2022/04/10 05:05:33;;;;;;;9.70;8.90;;;;;;;12.70;58.30;89725.81;5051601;28;20067;-66
2022/04/10 05:07:58;;;;;;;8.13;4.10;;;;;;;12.66;58.65;89724.97;5051698;28;20510;-66
2022/04/10 05:10:23;;;;;;;8.88;3.75;;;;;;;12.68;58.36;89722.72;5051153;28;20031;-68
2022/04/10 05:12:49;;;;;;;3.90;2.47;;;;;;;12.66;58.33;89725.75;5051497;28;20032;-66
2022/04/10 05:15:14;;;;;;;8.40;3.00;;;;;;;12.64;58.47;89720.00;5051525;28;20096;-66
2022/04/10 05:17:40;;;;;;;8.35;2.72;;;;;;;12.60;58.65;89719.13;5051533;28;20032;-66
2022/04/10 05:20:07;;;;;;;3.97;1.95;;;;;;;12.74;58.91;89724.00;5051092;28;20457;-66
2022/04/10 05:22:33;;;;;;;3.30;2.30;;;;;;;12.84;58.15;89723.44;5051110;28;20050;-67
2022/04/10 05:24:58;;;;;;;3.17;2.08;;;;;;;12.57;60.16;89727.84;5050986;28;20028;-67
2022/04/10 05:27:25;;;;;;;6.25;2.10;;;;;;;12.54;60.72;89723.97;5051209;28;20037;-67
2022/04/10 05:29:50;;;;;;;5.38;2.60;;;;;;;12.48;61.87;89721.94;5051327;28;20059;-68
2022/04/10 05:32:16;;;;;;;6.75;5.88;;;;;;;12.53;63.66;89730.44;5051314;28;20477;-67
2022/04/10 05:34:42;;;;;;;10.63;5.57;;;;;;;12.24;66.78;89721.03;5051115;28;20406;-66
2022/04/10 05:37:07;;;;;;;6.80;3.33;;;;;;;11.62;74.17;89719.19;5051078;28;20082;-65
2022/04/10 05:39:33;;;;;;;5.75;3.40;;;;;;;11.41;77.41;89730.09;5051118;28;20021;-65
2022/04/10 05:41:58;;;;;;;6.55;4.05;;;;;;;11.14;81.33;89730.91;5051114;28;20033;-66
2022/04/10 05:44:23;;;;;;;9.27;3.90;;;;;;;11.15;81.78;89735.88;5050956;28;20413;-67
2022/04/10 05:46:49;;;;;;;31.00;6.32;;;;;;;10.91;85.44;89730.69;5051994;28;20478;-67
2022/04/10 05:49:16;;;;;;;13.63;5.97;;;;;;;10.91;84.92;89720.81;5060158;28;20131;-66
2022/04/10 05:51:42;;;;;;;30.10;5.18;;;;;;;10.88;86.99;89726.78;5050752;28;20021;-69
2022/04/10 05:54:07;;;;;;;16.48;4.47;;;;;;;10.86;86.49;89723.69;5058994;28;20086;-64
2022/04/10 05:56:33;;;;;;;13.95;4.22;;;;;;;10.78;87.45;89714.78;5071148;28;20131;-67
2022/04/10 05:58:58;;;;;;;19.73;4.88;;;;;;;10.92;88.04;89721.59;5070285;28;20087;-66
2022/04/10 06:01:24;;;;;;;15.30;7.07;;;;;;;11.05;87.92;89718.53;5070267;28;20024;-64
2022/04/10 06:03:49;;;;;;;26.42;12.52;;;;;;;11.12;87.22;89722.50;5072216;28;20032;-65
2022/04/10 06:06:15;;;;;;;27.17;11.18;;;;;;;11.05;85.14;89705.22;5074073;28;20028;-66
2022/04/10 06:08:40;;;;;;;26.38;8.68;;;;;;;11.17;84.37;89706.25;5074680;28;20543;-66
2022/04/10 06:11:06;;;;;;;15.23;7.00;;;;;;;11.29;82.61;89704.31;5073282;28;20111;-66
2022/04/10 06:13:31;;;;;;;30.02;7.07;;;;;;;11.31;82.07;89717.28;5065339;28;20068;-65
2022/04/10 06:15:57;;;;;;;21.50;7.53;;;;;;;11.36;80.25;89717.81;5054109;28;20407;-64
2022/04/10 06:18:22;;;;;;;19.92;7.55;;;;;;;11.39;79.84;89703.81;5054387;28;20025;-65
2022/04/10 06:20:48;;;;;;;14.63;6.65;;;;;;;11.30;77.27;89699.75;5053785;28;20024;-64
2022/04/10 06:23:13;;;;;;;10.75;4.32;;;;;;;11.41;75.60;89714.13;5054483;28;20036;-64
2022/04/10 06:25:40;;;;;;;26.02;7.93;;;;;;;11.39;75.26;89719.00;5054439;28;20040;-64
2022/04/10 06:28:05;;;;;;;31.98;10.38;;;;;;;11.33;76.30;89715.81;5036329;28;20029;-64
2022/04/10 06:30:31;;;;;;;15.75;6.32;;;;;;;11.26;77.19;89717.53;5054336;28;20029;-65
2022/04/10 06:32:56;;;;;;;21.88;5.68;;;;;;;11.19;78.76;89720.00;5054404;28;20033;-65
2022/04/10 06:35:22;;;;;;;27.80;6.30;;;;;;;11.12;79.09;89715.28;5053844;28;20082;-65
2022/04/10 06:37:47;;;;;;;16.10;5.40;;;;;;;11.14;81.28;89728.25;5054271;28;20032;-65
2022/04/10 06:40:12;;;;;;;11.00;5.15;;;;;;;11.10;83.06;89722.81;5054165;28;20480;-65
2022/04/10 06:42:39;;;;;;;17.63;7.63;;;;;;;11.05;84.97;89728.41;5054195;28;20029;-64
2022/04/10 06:45:05;;;;;;;10.65;5.60;;;;;;;10.95;86.49;89726.22;5053978;28;20033;-64
2022/04/10 06:47:31;;;;;;;12.50;4.85;;;;;;;10.92;88.70;89726.91;5054010;28;20049;-63
2022/04/10 06:49:58;;;;;;;22.83;7.47;;;;;;;10.93;91.07;89736.44;5063216;28;20032;-66
2022/04/10 06:52:24;;;;;;;16.70;7.25;;;;;;;10.97;94.39;89732.75;5062898;28;20545;-65
2022/04/10 06:54:49;;;;;;;13.13;4.55;;;;;;;10.93;99.24;89723.13;5053612;28;20029;-65
2022/04/10 06:57:15;;;;;;;11.82;4.45;;;;;;;10.97;100.00;89734.63;5053869;28;20025;-64
2022/04/10 06:59:40;;;;;;;12.35;5.72;;;;;;;10.99;100.00;89738.50;5053394;28;20032;-63
2022/04/10 07:02:06;;;;;;;30.85;18.10;;;;;;;11.18;98.89;89742.41;5053471;28;20547;-63
2022/04/10 07:04:32;;;;;;;33.20;18.63;;;;;;;11.09;98.02;89724.72;5053599;28;20033;-64
2022/04/10 07:06:57;;;;;;;29.50;16.73;;;;;;;11.22;98.14;89735.31;5052939;28;20037;-63
2022/04/10 07:09:22;;;;;;;25.40;14.65;;;;;;;11.62;95.44;89733.28;5053102;28;20127;-64
2022/04/10 07:11:48;;;;;;;26.27;13.18;;;;;;;11.96;91.34;89736.38;5053357;28;20064;-64
2022/04/10 07:14:13;;;;;;;28.05;11.40;;;;;;;12.41;88.03;89741.22;5053313;28;20035;-64
2022/04/10 07:16:39;;;;;;;27.25;10.30;;;;;;;12.81;85.47;89727.59;5051873;28;20522;-65
2022/04/10 07:19:06;;;;;;;19.45;7.82;;;;;;;12.60;85.36;89743.13;5057634;28;20029;-65
2022/04/10 07:24:15;;;;;;;17.45;8.48;;;;;;;11.60;100.00;89740.06;5059497;28;20466;-66
2022/04/10 07:26:40;;;;;;;22.63;8.57;;;;;;;11.62;100.00;89754.59;5067924;28;20060;-64
2022/04/10 07:29:06;;;;;;;34.58;10.20;;;;;;;11.68;100.00;89736.47;5072872;28;20028;-64
2022/04/10 07:31:51;;;;;;;55.63;11.38;;;;;;;11.85;100.00;89754.81;5072837;28;20020;-64
2022/04/10 07:34:17;;;;;;;24.13;10.10;;;;;;;12.01;100.00;89736.16;5061325;28;20082;-63
2022/04/10 07:36:42;;;;;;;53.45;13.07;;;;;;;11.61;100.00;89749.59;5052588;28;20021;-64
2022/04/10 07:39:08;;;;;;;76.93;14.65;;;;;;;11.51;100.00;89748.22;5052665;28;20025;-64
2022/04/10 07:41:33;;;;;;;19.33;12.43;;;;;;;11.22;100.00;89743.28;5054676;28;20065;-64
2022/04/10 07:43:59;;;;;;;34.92;16.23;;;;;;;10.93;100.00;89750.50;5052909;28;20133;-65
2022/04/10 07:49:08;;;;;;;43.15;13.55;;;;;;;10.83;100.00;89766.19;5052565;28;20055;-64
2022/04/10 07:51:34;;;;;;;20.27;12.20;;;;;;;10.28;100.00;89767.66;5051194;28;20044;-63
2022/04/10 07:53:59;;;;;;;17.70;11.10;;;;;;;9.83;100.00;89761.31;5059108;28;20125;-62
2022/04/10 07:56:25;;;;;;;36.45;15.07;;;;;;;10.09;100.00;89754.88;5072684;28;20039;-63
2022/04/10 07:58:50;;;;;;;37.65;16.67;;;;;;;10.82;100.00;89759.31;5072558;28;20494;-65
2022/04/10 08:01:16;;;;;;;21.88;13.10;;;;;;;10.70;100.00;89765.44;5072143;28;20426;-64
2022/04/10 08:03:41;;;;;;;20.98;12.43;;;;;;;10.53;100.00;89768.34;5072177;28;20113;-66
2022/04/10 08:06:07;;;;;;;18.05;12.57;;;;;;;10.73;100.00;89772.72;5064155;28;20091;-65
2022/04/10 08:08:33;;;;;;;22.75;14.68;;;;;;;10.43;100.00;89782.91;5066023;28;20101;-66
2022/04/10 08:10:58;;;;;;;33.03;17.48;;;;;;;10.16;100.00;89779.81;5068918;28;20051;-64
2022/04/10 08:13:24;;;;;;;38.72;19.70;;;;;;;9.71;100.00;89779.91;5072384;28;20032;-63
2022/04/10 08:15:49;;;;;;;145.25;26.85;;;;;;;9.48;100.00;89765.50;5060878;28;20418;-64
2022/04/10 08:18:15;;;;;;;31.58;19.05;;;;;;;8.85;100.00;89772.84;5052059;28;20047;-64
2022/04/10 08:20:41;;;;;;;28.40;19.17;;;;;;;8.63;100.00;89766.78;5051367;28;20086;-64
2022/04/10 08:23:06;;;;;;;32.58;25.10;;;;;;;9.07;100.00;89761.88;5049160;28;20021;-64
2022/04/10 08:25:32;;;;;;;29.08;20.90;;;;;;;9.15;100.00;89753.06;5057529;28;20409;-65
2022/04/10 08:27:57;;;;;;;31.58;20.67;;;;;;;9.38;100.00;89755.31;5070403;28;20111;-64
2022/04/10 08:30:23;;;;;;;26.73;19.05;;;;;;;10.91;100.00;89750.09;5071870;28;20115;-64
2022/04/10 08:32:48;;;;;;;29.02;19.08;;;;;;;15.28;85.53;89741.84;5053866;28;20064;-65
2022/04/10 08:35:15;;;;;;;26.75;16.63;;;;;;;17.39;67.11;89751.63;5071252;28;20037;-64
2022/04/10 08:37:41;;;;;;;26.75;13.88;;;;;;;13.98;77.06;89774.41;5071799;28;20025;-65
2022/04/10 08:40:07;;;;;;;17.73;14.00;;;;;;;13.26;87.25;89774.28;5071420;28;20078;-64
2022/04/10 08:42:33;;;;;;;19.30;13.32;;;;;;;12.18;90.03;89786.44;5072030;28;20032;-63
2022/04/10 08:44:59;;;;;;;12.18;10.40;;;;;;;11.26;97.35;89790.19;5070728;28;20713;-63
2022/04/10 08:47:25;;;;;;;13.95;10.32;;;;;;;9.96;100.00;89793.97;5071295;28;20078;-63
2022/04/10 08:49:53;;;;;;;23.75;11.70;;;;;;;10.32;100.00;89787.91;5067252;28;20025;-63
2022/04/10 08:52:20;;;;;;;31.77;12.90;;;;;;;10.30;100.00;89787.47;5071132;28;20059;-64
2022/04/10 08:54:47;;;;;;;30.67;12.55;;;;;;;9.75;100.00;89799.38;5071094;28;20025;-64
2022/04/10 08:57:13;;;;;;;22.02;13.63;;;;;;;9.93;100.00;89794.63;5070934;28;20116;-64
2022/04/10 08:59:40;;;;;;;64.80;20.88;;;;;;;9.81;100.00;89798.06;5071341;28;20025;-64
2022/04/10 09:02:06;;;;;;;24.95;13.27;;;;;;;9.33;100.00;89784.72;5071013;28;20418;-66
2022/04/10 09:04:31;;;;;;;19.17;13.63;;;;;;;9.11;100.00;89781.31;5063110;28;20482;-67
2022/04/10 09:07:02;;;;;;;31.40;17.10;;;;;;;9.46;100.00;89813.59;5060994;28;20013;-65
2022/04/10 09:09:29;;;;;;;14.32;10.45;;;;;;;9.46;100.00;89802.19;5066272;28;20025;-64
2022/04/10 09:11:55;;;;;;;24.88;15.13;;;;;;;9.67;100.00;89794.94;5071335;28;20041;-65
2022/04/10 09:14:25;;;;;;;41.97;13.65;;;;;;;9.22;100.00;89803.69;5069636;28;20028;-64
2022/04/10 09:17:17;;;;;;;34.70;10.35;;;;;;;9.02;100.00;89809.81;5068644;28;20538;-65
2022/04/10 09:19:53;;;;;;;20.25;10.80;;;;;;;8.87;100.00;89813.06;5049059;28;20490;-64
2022/04/10 09:22:19;;;;;;;19.45;10.88;;;;;;;8.85;100.00;89808.09;5060643;28;20036;-64
2022/04/10 09:25:09;;;;;;;15.48;7.40;;;;;;;8.84;100.00;89801.25;5071064;28;20024;-63
2022/04/10 09:27:37;;;;;;;16.67;10.55;;;;;;;8.88;100.00;89806.66;5070839;28;20027;-63
2022/04/10 09:30:05;;;;;;;16.33;9.45;;;;;;;8.99;100.00;89821.06;5070708;28;20039;-63
2022/04/10 09:32:41;;;;;;;9.50;6.15;;;;;;;8.62;100.00;89836.81;5054242;28;20154;-64
2022/04/10 09:35:08;;;;;;;18.67;9.77;;;;;;;8.54;100.00;89831.56;5050428;28;20031;-63
2022/04/10 09:37:45;;;;;;;15.25;8.98;;;;;;;8.55;100.00;89817.22;5050173;28;20025;-64
2022/04/10 09:40:33;;;;;;;19.23;8.45;;;;;;;8.48;100.00;89823.03;5053331;28;20067;-64
2022/04/10 09:43:07;;;;;;;82.72;12.65;;;;;;;8.24;100.00;89850.13;5064589;28;20044;-64
2022/04/10 09:45:43;;;;;;;9.35;6.65;;;;;;;7.84;100.00;89856.84;5063407;28;20039;-64
2022/04/10 09:48:21;;;;;;;13.75;6.65;;;;;;;7.70;100.00;89857.03;5038059;28;20140;-63
2022/04/10 09:50:53;;;;;;;20.15;13.10;;;;;;;7.48;100.00;89864.13;5031644;28;20040;-67
2022/04/10 09:53:20;;;;;;;29.25;14.68;;;;;;;7.35;100.00;89856.38;5044083;28;20480;-66
2022/04/10 09:55:55;;;;;;;22.25;15.43;;;;;;;7.18;100.00;89841.31;5030261;28;20041;-65
2022/04/10 09:58:21;;;;;;;22.52;15.00;;;;;;;6.64;100.00;89854.13;5036530;28;20044;-65
2022/04/10 10:00:49;;;;;;;26.42;16.75;;;;;;;6.56;100.00;89846.94;5050447;28;20037;-66
2022/04/10 10:03:16;;;;;;;17.00;11.27;;;;;;;6.43;100.00;89846.00;5050374;28;20095;-66
2022/04/10 10:05:43;;;;;;;22.25;14.45;;;;;;;6.26;100.00;89843.34;5050610;28;20132;-64
2022/04/10 10:08:08;;;;;;;16.17;12.40;;;;;;;6.56;100.00;89839.03;5050574;28;20099;-65
2022/04/10 10:10:36;;;;;;;26.88;18.70;;;;;;;6.57;100.00;89833.41;5050919;28;20045;-65
2022/04/10 10:13:05;;;;;;;17.90;13.65;;;;;;;7.02;100.00;89833.09;5050559;28;20075;-65
2022/04/10 10:15:32;;;;;;;32.92;24.67;;;;;;;7.46;100.00;89833.78;5049555;28;20064;-67
2022/04/10 10:18:01;;;;;;;14.60;10.07;;;;;;;8.15;100.00;89838.00;5049630;28;20028;-65
2022/04/10 10:20:27;;;;;;;11.77;9.45;;;;;;;8.14;100.00;89847.81;5050381;28;20141;-64
2022/04/10 10:22:53;;;;;;;13.88;11.50;;;;;;;7.82;100.00;89843.91;5047153;28;20029;-65
2022/04/10 10:25:30;;;;;;;10.38;7.40;;;;;;;7.45;100.00;89851.53;5049821;28;20028;-65
2022/04/10 10:28:07;;;;;;;21.75;19.42;;;;;;;7.24;100.00;89840.03;5049657;28;20086;-64
2022/04/10 10:30:48;;;;;;;7.60;6.53;;;;;;;7.16;100.00;89838.22;5049953;28;20067;-66
2022/04/10 10:33:19;;;;;;;22.02;15.90;;;;;;;7.05;100.00;89826.41;5050112;28;20130;-66
2022/04/10 10:35:49;;;;;;;43.85;29.25;;;;;;;8.10;100.00;89825.72;5050319;28;20033;-64
2022/04/10 10:38:25;;;;;;;12.90;11.20;;;;;;;8.15;100.00;89814.16;5050763;28;20025;-66
2022/04/10 10:41:18;;;;;;;11.85;8.82;;;;;;;8.27;100.00;89812.38;5050423;28;20498;-66
2022/04/10 10:43:45;;;;;;;12.55;9.60;;;;;;;8.60;100.00;89795.81;5012047;28;20052;-65
2022/04/10 10:46:24;;;;;;;10.90;8.65;;;;;;;7.81;100.00;89803.44;5050360;28;20025;-65
2022/04/10 10:49:10;;;;;;;12.05;9.48;;;;;;;7.87;100.00;89817.25;5049709;28;20296;-65
2022/04/10 10:51:37;;;;;;;8.18;5.90;;;;;;;7.19;100.00;89819.84;5048694;28;20056;-67
2022/04/10 10:54:08;;;;;;;9.27;5.82;;;;;;;7.26;100.00;89818.56;5050773;28;20095;-64
2022/04/10 10:56:38;;;;;;;15.88;10.63;;;;;;;7.11;100.00;89820.66;5051819;28;20271;-66
2022/04/10 10:59:29;;;;;;;10.07;7.60;;;;;;;6.57;100.00;89816.78;5035795;28;20048;-65
2022/04/10 11:02:10;;;;;;;14.20;10.20;;;;;;;6.34;100.00;89816.19;5053281;28;20048;-66
2022/04/10 11:04:38;;;;;;;19.05;13.82;;;;;;;6.42;100.00;89811.97;5053173;28;20088;-68
2022/04/10 11:07:19;;;;;;;21.75;19.00;;;;;;;6.35;100.00;89803.75;5053581;28;20513;-67
2022/04/10 11:10:01;;;;;;;4.97;4.28;;;;;;;6.23;100.00;89809.63;5053190;28;20048;-65
2022/04/10 11:12:48;;;;;;;5.15;4.63;;;;;;;6.28;100.00;89818.16;5053519;28;20041;-66
2022/04/10 11:15:24;;;;;;;4.13;3.72;;;;;;;6.15;100.00;89815.66;5035032;28;20542;-66
2022/04/10 11:17:52;;;;;;;4.22;3.35;;;;;;;5.96;100.00;89790.34;5039460;28;20065;-65
2022/04/10 11:20:20;;;;;;;10.45;6.22;;;;;;;5.90;100.00;89807.41;5033324;28;20060;-67
2022/04/10 11:22:49;;;;;;;16.20;9.27;;;;;;;6.05;100.00;89806.19;5032429;28;20431;-67
2022/04/10 11:25:19;;;;;;;18.95;9.77;;;;;;;6.21;100.00;89799.38;5033208;28;20064;-65
2022/04/10 11:27:53;;;;;;;6.40;4.28;;;;;;;6.31;100.00;89798.28;5033295;28;20104;-65
2022/04/10 11:30:22;;;;;;;;;;;;;;;6.33;100.00;89811.22;5033629;28;20485;-66
2022/04/10 11:33:14;;;;;;;7.63;4.90;;;;;;;6.25;100.00;89805.59;5027023;28;19952;-68